Monday, October 23, 2017, 1:12 PM EDT
Back to Local

KHYA, Hyannis Barnstable Boardmn

Location: West Yarmouth, MA, United States Lat: 41.667
Local Time: 1:12 PM EDT (17:12 GMT) Lon: -70.267
Time Zone: US/Eastern Elev: 52 ft

Show me the last for .
Show Coded

Time T Td Feel RH Dir Speed Gust Alt SLP Vis Weather Sky Remarks
2017-10-23 11:56 69 62 - 78 180° 8 - 30.32 30.32 10 CLR None
2017-10-23 10:56 66 61 - 83 160° 8 - 30.35 30.35 10 FEW018 None
2017-10-23 09:56 65 62 - 90 170° 3 - 30.37 30.37 10 FEW018 None
2017-10-23 09:13 62 60 - 93 130° 3 - 30.38 - 10 BKN020 None
2017-10-23 08:56 61 61 - 100 - Calm - 30.38 30.38 10 FEW020 None
2017-10-23 08:26 55 55 - 100 - Calm - 30.38 - 4 BR SCT001 None
2017-10-23 08:14 53 53 - 100 - Calm - 30.38 - 1 BR OVC001 Variable visibility
2017-10-23 08:05 51 51 - 100 - Calm - 30.38 - 2 BR OVC001 None
2017-10-23 07:56 50 50 - 100 - Calm - 30.38 30.38 0 FG VV002 6-hr Min Temp (8am): 46.9°F
6-hr Max Temp (8am): 50.0°F
2017-10-23 06:56 47 47 - 100 - Calm - 30.36 30.37 0 FG VV001 None
2017-10-23 06:24 48 47 - 96 - Calm - 30.36 - 0 FG VV001 None
2017-10-23 06:08 48 47 - 96 - Calm - 30.36 - 0 FG VV001 None
2017-10-23 05:56 48 48 - 100 - Calm - 30.37 30.37 0 FG VV001 None
2017-10-23 05:42 47 47 - 100 - Calm - 30.37 - 0 FG VV001 None
2017-10-23 05:35 48 47 - 96 - Calm - 30.37 - 0 FG VV001 None
2017-10-23 05:20 48 47 - 96 - Calm - 30.37 - 1 BR VV001 None
2017-10-23 05:12 48 46 47 92 50° 3 - 30.37 - 0 FG VV001 None
2017-10-23 04:56 48 47 - 96 - Calm - 30.37 30.37 0 FG VV001 None
2017-10-23 04:46 48 48 - 100 - Calm - 30.37 - 1 BR OVC001 None
2017-10-23 04:37 48 48 - 100 - Calm - 30.37 - 0 BR VV001 None
2017-10-23 03:56 48 48 - 100 - Calm - 30.37 30.37 0 FG VV001 None
2017-10-23 03:24 48 47 - 96 - Calm - 30.38 - 0 FG VV001 None
2017-10-23 03:16 48 48 - 100 - Calm - 30.38 - 1 BR VV001 None
2017-10-23 02:56 49 48 - 96 - Calm - 30.38 30.38 0 FG VV001 None
2017-10-23 02:35 50 49 - 96 - Calm - 30.39 - 0 FG VV001 None
2017-10-23 02:20 50 48 - 92 - Calm - 30.39 - 0 BR VV001 Variable visibility
2017-10-23 02:14 49 48 - 96 - Calm - 30.39 - 1 BR SCT002 Variable visibility
2017-10-23 01:58 50 49 - 96 - Calm - 30.40 - 3 BR SCT002 None
2017-10-23 01:52 51 50 - 96 - Calm - 30.39 30.40 1 BR SCT002 Variable visibility
6-hr Min Temp (2am): 50.0°F
6-hr Max Temp (2am): 57.9°F
2017-10-23 01:51 52 48 - 87 - Calm - 30.39 - 1 BR SCT002 Variable visibility
2017-10-23 01:38 51 50 - 96 - Calm - 30.39 - 0 BR VV002 None
2017-10-23 01:35 51 50 - 96 - Calm - 30.39 - 1 BR SCT002 None
2017-10-23 00:56 51 50 - 96 - Calm - 30.40 30.40 5 BR FEW002 24-hr Min Temp (1am): 50.0°F
24-hr Max Temp (1am): 73.9°F
2017-10-23 00:40 51 50 - 96 - Calm - 30.40 - 7 CLR None
2017-10-23 00:33 51 50 - 96 - Calm - 30.40 - 2 BR CLR None
2017-10-23 00:29 51 50 - 96 - Calm - 30.40 - 0 BR CLR None
2017-10-23 00:11 52 51 - 96 - Calm - 30.40 - 1 BR CLR Variable visibility
2017-10-22 23:56 52 51 - 96 - Calm - 30.40 30.41 5 BR CLR None
2017-10-22 23:49 53 52 - 96 - Calm - 30.41 - 2 BR CLR None
2017-10-22 23:47 53 52 - 96 - Calm - 30.41 - 1 BR VV002 None
2017-10-22 23:39 52 51 - 96 - Calm - 30.41 - 1 BR FEW002 Variable visibility
2017-10-22 22:56 54 53 - 96 - Calm - 30.41 30.41 5 BR CLR None
2017-10-22 22:52 54 54 - 100 - Calm - 30.41 - 3 BR CLR None
2017-10-22 22:41 54 53 - 96 - Calm - 30.41 - 1 BR CLR None
2017-10-22 21:56 56 54 - 93 - Calm - 30.41 30.41 7 SCT002 None
2017-10-22 21:14 56 55 - 96 - Calm - 30.41 - 9 BKN002 None
2017-10-22 20:56 55 54 - 96 - Calm - 30.40 30.40 8 CLR None
2017-10-22 19:56 57 56 - 96 - Calm - 30.39 30.39 8 CLR 6-hr Min Temp (8pm): 57.0°F
6-hr Max Temp (8pm): 70.0°F
2017-10-22 18:56 60 58 - 92 - Calm - 30.39 30.39 8 CLR None
2017-10-22 17:56 63 61 - 93 190° 3 - 30.38 30.38 10 CLR None
2017-10-22 16:56 66 61 - 83 170° 3 - 30.38 30.38 10 CLR None
2017-10-22 15:56 67 61 - 81 180° 6 - 30.38 30.38 10 CLR None
2017-10-22 14:56 70 54 - 56 150° 6 - 30.37 30.37 10 CLR None
2017-10-22 13:56 69 60 - 73 180° 6 - 30.38 30.38 10 CLR 6-hr Min Temp (2pm): 53.1°F
6-hr Max Temp (2pm): 73.9°F

Support USWX by starting your Amazon purchase here.